Mecks Corner, Pennsylvania
Current Conditions -  °F | °C
As of 3:56 AM on Monday 22 Dec 2014 (Local Time) from KCXY Reporting Station
Haze Haze  
Wind Chill: 20°   Ceiling: Unl
Heat Index: 20°   Visibility: 5mi
Dew Point: 18°   Wind: 3mph
Humidity: 92%   Direction: 240°WSW
Pressure: 30.32"   Gusts: NA
Location:  40.4189°N, 77.1972°W
Report Text: KCXY 220856Z AUTO 24003KT 5SM BR CLR M07/M08 A3032 RMK AO2 SLP272 I1000 I3000 T10671078 50000
Loading
Personal Weather Stations






























Interactive Weather Map New forecast layout! Learn more

10-Day Weather Forecast

Advertisements
Track Severe Weather on mobile